createdAt,value
2017-12-20T00:00:52.175Z,211.93
2017-12-20T00:03:19.645Z,207.10
2017-12-20T00:05:47.166Z,184.43
2017-12-20T00:08:14.654Z,236.18
2017-12-20T00:10:42.174Z,215.57
2017-12-20T00:13:09.762Z,238.45
2017-12-20T00:15:37.348Z,220.43
2017-12-20T00:18:04.922Z,173.85
2017-12-20T00:20:32.430Z,224.35
2017-12-20T00:23:00.016Z,219.85
2017-12-20T00:25:27.522Z,188.82
2017-12-20T00:27:55.846Z,177.45
2017-12-20T00:30:23.402Z,163.18
2017-12-20T00:32:50.954Z,154.18
2017-12-20T00:35:18.471Z,225.77
2017-12-20T00:37:45.946Z,169.52
2017-12-20T00:40:14.262Z,189.93
2017-12-20T00:42:41.787Z,175.82
2017-12-20T00:48:12.369Z,181.12
2017-12-20T00:50:39.882Z,175.93
2017-12-20T00:53:08.169Z,181.02
2017-12-20T00:55:35.781Z,181.73
2017-12-20T00:58:03.271Z,179.20
2017-12-20T01:00:30.786Z,190.85
2017-12-20T01:02:58.277Z,157.00
2017-12-20T01:05:25.817Z,140.93
2017-12-20T01:07:53.397Z,192.05
2017-12-20T01:10:20.922Z,143.02
2017-12-20T01:12:48.409Z,163.30
2017-12-20T01:15:15.938Z,195.73
2017-12-20T01:17:43.467Z,254.25
2017-12-20T01:20:11.011Z,184.20
2017-12-20T01:22:39.278Z,188.48
2017-12-20T01:25:06.765Z,185.00
2017-12-20T01:27:53.621Z,160.00
2017-12-20T01:30:21.202Z,214.05
2017-12-20T01:32:48.730Z,176.07
2017-12-20T01:35:31.007Z,159.52
2017-12-20T01:37:58.598Z,197.87
2017-12-20T01:40:26.186Z,165.82
2017-12-20T01:42:53.719Z,159.60
2017-12-20T01:45:21.265Z,157.45
2017-12-20T01:47:48.838Z,139.82
2017-12-20T01:50:16.411Z,149.75
2017-12-20T01:52:43.985Z,193.48
2017-12-20T01:55:12.290Z,173.32
2017-12-20T01:57:39.854Z,165.57
2017-12-20T02:00:07.772Z,130.40
2017-12-20T02:02:35.339Z,131.90
2017-12-20T02:05:08.674Z,135.90
2017-12-20T02:07:36.167Z,159.40
2017-12-20T02:10:03.681Z,144.77
2017-12-20T02:12:31.943Z,129.18
2017-12-20T02:14:59.487Z,119.87
2017-12-20T02:17:27.018Z,131.43
2017-12-20T02:19:54.574Z,106.30
2017-12-20T02:22:22.087Z,102.10
2017-12-20T02:24:49.678Z,100.18
2017-12-20T02:27:17.969Z,115.72
2017-12-20T02:29:45.492Z,119.93
2017-12-20T02:32:13.008Z,104.55
2017-12-20T02:34:40.528Z,107.87
2017-12-20T02:37:08.050Z,98.22
2017-12-20T02:39:36.344Z,95.55
2017-12-20T02:42:08.689Z,103.50
2017-12-20T02:44:36.229Z,94.28
2017-12-20T02:47:03.761Z,88.25
2017-12-20T02:49:31.319Z,93.93
2017-12-20T02:51:58.862Z,99.65
2017-12-20T02:54:26.428Z,105.37
2017-12-20T02:56:53.971Z,98.03
2017-12-20T02:59:21.502Z,85.78
2017-12-20T03:01:49.072Z,85.75
2017-12-20T03:04:17.371Z,106.35
2017-12-20T03:06:44.904Z,83.10
2017-12-20T03:09:12.478Z,95.00
2017-12-20T03:11:40.830Z,90.82
2017-12-20T03:14:08.330Z,84.20
2017-12-20T03:16:35.889Z,109.85
2017-12-20T03:19:03.378Z,104.90
2017-12-20T03:21:30.874Z,102.80
2017-12-20T03:23:58.385Z,85.57
2017-12-20T03:26:25.912Z,105.37
2017-12-20T03:28:53.463Z,99.30
2017-12-20T03:31:21.783Z,86.37
2017-12-20T03:33:49.298Z,91.10
2017-12-20T03:36:37.446Z,92.68
2017-12-20T03:39:05.769Z,117.47
2017-12-20T03:41:33.355Z,101.85
2017-12-20T03:44:00.953Z,102.40
2017-12-20T03:46:28.502Z,154.05
2017-12-20T03:48:56.053Z,138.05
2017-12-20T03:51:24.377Z,124.60
2017-12-20T03:53:51.894Z,153.65
2017-12-20T03:56:20.210Z,209.12
2017-12-20T03:58:47.735Z,207.43
2017-12-20T04:01:16.060Z,181.37
2017-12-20T04:03:43.528Z,215.20
2017-12-20T04:06:11.058Z,146.07
2017-12-20T04:08:38.610Z,147.50
2017-12-20T04:11:06.162Z,180.68
2017-12-20T04:13:33.702Z,164.98
2017-12-20T04:16:01.981Z,186.85
2017-12-20T04:18:30.263Z,145.93
2017-12-20T04:21:03.547Z,198.20
2017-12-20T04:23:31.882Z,204.95
2017-12-20T04:25:59.461Z,252.38
2017-12-20T04:28:27.019Z,327.30
2017-12-20T04:30:54.574Z,166.43
2017-12-20T04:33:22.164Z,210.60
2017-12-20T04:35:50.441Z,197.18
2017-12-20T04:38:17.977Z,237.38
2017-12-20T04:40:45.521Z,181.12
2017-12-20T04:43:13.098Z,179.02
2017-12-20T04:45:40.712Z,192.02
2017-12-20T04:48:08.160Z,360.02
2017-12-20T04:50:35.675Z,172.60
2017-12-20T04:53:03.178Z,160.63
2017-12-20T04:55:36.778Z,172.95
2017-12-20T04:58:04.367Z,169.32
2017-12-20T05:00:31.962Z,145.55
2017-12-20T05:03:00.302Z,230.50
2017-12-20T05:05:27.856Z,211.60
2017-12-20T05:07:55.451Z,268.52
2017-12-20T05:10:23.019Z,239.77
2017-12-20T05:12:50.582Z,166.18
2017-12-20T05:15:18.949Z,199.93
2017-12-20T05:17:46.481Z,255.02
2017-12-20T05:20:14.023Z,210.25
2017-12-20T05:22:41.578Z,285.58
2017-12-20T05:25:09.103Z,183.93
2017-12-20T05:27:37.367Z,259.08
2017-12-20T05:30:05.655Z,130.73
2017-12-20T05:32:40.154Z,287.85
2017-12-20T05:35:07.636Z,195.77
2017-12-20T05:37:35.919Z,203.95
2017-12-20T05:40:03.468Z,253.90
2017-12-20T05:42:31.714Z,281.70
2017-12-20T05:44:59.201Z,246.23
2017-12-20T05:47:26.714Z,264.05
2017-12-20T05:49:54.234Z,272.27
2017-12-20T05:52:21.749Z,157.62
2017-12-20T05:54:49.244Z,234.00
2017-12-20T05:57:19.430Z,161.93
2017-12-20T05:59:46.927Z,293.52
2017-12-20T06:02:14.466Z,229.77
2017-12-20T06:04:41.938Z,292.55
2017-12-20T06:07:09.496Z,228.45
2017-12-20T06:09:37.059Z,227.90
2017-12-20T06:12:05.318Z,226.50
2017-12-20T06:14:32.826Z,228.60
2017-12-20T06:17:21.932Z,304.98
2017-12-20T06:19:49.484Z,179.30
2017-12-20T06:22:16.976Z,240.15
2017-12-20T06:24:45.239Z,257.42
2017-12-20T06:27:12.748Z,235.95
2017-12-20T06:29:40.278Z,193.48
2017-12-20T06:32:07.791Z,270.80
2017-12-20T06:34:35.305Z,291.98
2017-12-20T06:37:02.829Z,400.92
2017-12-20T06:39:30.334Z,292.05
2017-12-20T06:41:57.863Z,285.98
2017-12-20T06:44:26.152Z,311.62
2017-12-20T06:46:53.658Z,250.57
2017-12-20T06:49:21.143Z,292.80
2017-12-20T06:51:48.634Z,373.05
2017-12-20T06:54:16.175Z,307.48
2017-12-20T06:56:43.703Z,335.25
2017-12-20T06:59:11.244Z,308.17
2017-12-20T07:01:38.763Z,366.48
2017-12-20T07:04:06.284Z,276.90
2017-12-20T07:06:38.078Z,258.42
2017-12-20T07:09:15.529Z,117.43
2017-12-20T07:11:43.049Z,307.55
2017-12-20T07:14:10.547Z,380.95
2017-12-20T07:16:38.077Z,326.02
2017-12-20T07:19:05.614Z,426.65
2017-12-20T07:21:33.105Z,277.77
2017-12-20T07:24:00.589Z,251.45
2017-12-20T07:26:28.159Z,280.10
2017-12-20T07:28:56.376Z,365.25
2017-12-20T07:31:23.890Z,404.77
2017-12-20T07:33:52.151Z,171.27
2017-12-20T07:36:19.630Z,315.42
2017-12-20T07:38:47.147Z,251.52
2017-12-20T07:41:14.702Z,287.63
2017-12-20T07:43:42.300Z,247.40
2017-12-20T07:46:09.823Z,199.80
2017-12-20T07:48:37.333Z,205.82
2017-12-20T07:51:05.587Z,160.45
2017-12-20T07:53:33.096Z,168.35
2017-12-20T07:56:00.757Z,170.25
2017-12-20T07:58:28.269Z,196.37
2017-12-20T08:00:55.779Z,146.48
2017-12-20T08:03:25.064Z,169.98
2017-12-20T08:05:56.344Z,134.10
2017-12-20T08:08:23.862Z,203.70
2017-12-20T08:10:51.365Z,168.48
2017-12-20T08:13:18.920Z,193.10
2017-12-20T08:18:39.673Z,134.15
2017-12-20T08:21:07.196Z,145.73
2017-12-20T08:23:34.695Z,111.80
2017-12-20T08:26:02.203Z,96.43
2017-12-20T08:28:29.727Z,72.43
2017-12-20T08:30:57.994Z,74.68
2017-12-20T08:33:25.498Z,79.87
2017-12-20T08:35:53.008Z,73.20
2017-12-20T08:38:21.277Z,113.45
2017-12-20T08:40:49.559Z,67.00
2017-12-20T08:43:17.850Z,71.00
2017-12-20T08:45:51.890Z,99.75
2017-12-20T08:48:19.408Z,70.82
2017-12-20T08:50:47.646Z,88.53
2017-12-20T08:53:15.212Z,84.93
2017-12-20T08:55:42.816Z,90.70
2017-12-20T08:58:10.305Z,86.63
2017-12-20T09:00:37.831Z,92.90
2017-12-20T09:03:05.311Z,112.68
2017-12-20T09:05:32.815Z,94.37
2017-12-20T09:08:00.301Z,102.30
2017-12-20T09:10:28.569Z,104.03
2017-12-20T09:12:56.847Z,108.65
2017-12-20T09:15:25.102Z,90.40
2017-12-20T09:17:52.590Z,92.75
2017-12-20T09:20:20.900Z,96.20
2017-12-20T09:22:48.418Z,112.53
2017-12-20T09:25:16.665Z,128.50
2017-12-20T09:27:44.191Z,97.80
2017-12-20T09:30:11.698Z,128.87
2017-12-20T09:32:39.217Z,104.00
2017-12-20T09:35:23.577Z,102.32
2017-12-20T09:37:51.078Z,99.55
2017-12-20T09:40:18.570Z,144.75
2017-12-20T09:42:46.114Z,108.15
2017-12-20T09:45:13.674Z,102.18
2017-12-20T09:47:41.167Z,108.15
2017-12-20T09:50:18.598Z,130.18
2017-12-20T09:52:57.026Z,131.73
2017-12-20T09:55:25.309Z,150.62
2017-12-20T09:57:53.594Z,134.52
2017-12-20T10:00:29.448Z,160.32
2017-12-20T10:02:56.953Z,178.55
2017-12-20T10:05:24.441Z,246.70
2017-12-20T10:07:51.927Z,139.82
2017-12-20T10:10:19.470Z,174.12
2017-12-20T10:12:47.739Z,151.23
2017-12-20T10:15:15.266Z,94.78
2017-12-20T10:17:43.089Z,108.32
2017-12-20T10:20:10.558Z,130.90
2017-12-20T10:22:38.060Z,94.47
2017-12-20T10:25:05.614Z,122.28
2017-12-20T10:27:33.129Z,113.40
2017-12-20T10:30:00.609Z,126.12
2017-12-20T10:32:28.122Z,91.43
2017-12-20T10:34:56.406Z,84.90
2017-12-20T10:37:23.874Z,84.35
2017-12-20T10:39:51.375Z,92.90
2017-12-20T10:42:18.923Z,114.05
2017-12-20T10:44:46.434Z,156.27
2017-12-20T10:47:26.571Z,126.25
2017-12-20T10:49:54.087Z,81.10
2017-12-20T10:52:21.597Z,86.78
2017-12-20T10:54:49.176Z,54.35
2017-12-20T10:57:16.714Z,66.62
2017-12-20T10:59:45.007Z,62.83
2017-12-20T11:02:13.328Z,47.22
2017-12-20T11:04:40.844Z,45.70
2017-12-20T11:07:08.355Z,45.38
2017-12-20T11:09:35.826Z,41.22
2017-12-20T11:12:03.303Z,46.37
2017-12-20T11:14:45.571Z,36.15
2017-12-20T11:17:19.382Z,47.95
2017-12-20T11:19:46.889Z,37.58
2017-12-20T11:22:14.390Z,32.33
2017-12-20T11:24:41.932Z,38.60
2017-12-20T11:27:09.447Z,35.97
2017-12-20T11:29:37.719Z,37.55
2017-12-20T11:32:06.048Z,36.45
2017-12-20T11:34:33.575Z,38.28
2017-12-20T11:37:01.108Z,50.28
2017-12-20T11:39:28.594Z,35.97
2017-12-20T11:41:56.102Z,52.20
2017-12-20T11:44:23.593Z,37.28
2017-12-20T11:46:51.861Z,44.25
2017-12-20T11:49:19.364Z,41.33
2017-12-20T11:51:46.886Z,40.45
2017-12-20T11:54:15.137Z,40.12
2017-12-20T11:56:42.651Z,41.92
2017-12-20T11:59:16.264Z,35.90
2017-12-20T12:01:43.747Z,40.72
2017-12-20T12:04:11.239Z,37.05
2017-12-20T12:06:39.503Z,36.47
2017-12-20T12:09:07.016Z,46.47
2017-12-20T12:11:34.518Z,48.63
2017-12-20T12:14:02.017Z,38.83
2017-12-20T12:16:35.825Z,50.30
2017-12-20T12:19:03.331Z,48.72
2017-12-20T12:21:30.813Z,41.63
2017-12-20T12:23:59.081Z,48.05
2017-12-20T12:26:27.358Z,34.00
2017-12-20T12:29:01.246Z,31.50
2017-12-20T12:31:28.730Z,31.87
2017-12-20T12:33:56.987Z,31.87
2017-12-20T12:36:24.502Z,35.75
2017-12-20T12:38:51.997Z,37.67
2017-12-20T12:47:24.875Z,25.27
2017-12-20T12:49:52.381Z,25.67
2017-12-20T12:52:34.416Z,28.55
2017-12-20T12:55:01.952Z,24.63
2017-12-20T12:57:29.449Z,28.52
2017-12-20T12:59:56.980Z,24.30
2017-12-20T13:02:25.255Z,27.87
2017-12-20T13:04:52.753Z,29.52
2017-12-20T13:07:20.269Z,28.45
2017-12-20T13:09:48.568Z,32.97
2017-12-20T13:12:16.066Z,25.58
2017-12-20T13:14:43.571Z,26.95
2017-12-20T13:17:11.847Z,30.30
2017-12-20T13:19:40.098Z,19.98
2017-12-20T13:22:07.609Z,24.17
2017-12-20T13:24:35.197Z,25.55
2017-12-20T13:27:02.703Z,30.92
2017-12-20T13:29:30.962Z,41.75
2017-12-20T13:31:58.646Z,26.45
2017-12-20T13:34:26.189Z,38.35
2017-12-20T13:36:54.425Z,31.62
2017-12-20T13:39:21.949Z,25.12
2017-12-20T13:41:49.430Z,30.58
2017-12-20T13:44:16.947Z,33.67
2017-12-20T13:46:59.901Z,34.88
2017-12-20T13:49:27.416Z,37.67
2017-12-20T13:51:54.979Z,24.75
2017-12-20T13:54:23.254Z,29.37
2017-12-20T13:56:51.499Z,26.83
2017-12-20T13:59:19.006Z,28.83
2017-12-20T14:01:47.284Z,30.60
2017-12-20T14:04:14.862Z,28.25
2017-12-20T14:06:45.639Z,31.42
2017-12-20T14:09:13.118Z,28.12
2017-12-20T14:11:41.410Z,31.98
2017-12-20T14:14:08.899Z,44.83
2017-12-20T14:16:36.416Z,34.33
2017-12-20T14:19:03.952Z,27.62
2017-12-20T14:21:31.455Z,34.47
2017-12-20T14:23:58.995Z,16.08
2017-12-20T14:26:26.506Z,27.48
2017-12-20T14:28:53.996Z,36.28
2017-12-20T14:31:34.666Z,25.80
2017-12-20T14:34:02.189Z,38.35
2017-12-20T14:36:35.797Z,36.10
2017-12-20T14:39:03.368Z,44.08
2017-12-20T14:41:30.852Z,23.90
2017-12-20T14:43:58.839Z,43.00
2017-12-20T14:46:26.382Z,45.78
2017-12-20T14:48:54.673Z,33.75
2017-12-20T14:51:22.227Z,42.35
2017-12-20T14:53:50.473Z,54.85
2017-12-20T14:56:23.803Z,59.00
2017-12-20T14:58:51.325Z,47.60
2017-12-20T15:01:18.839Z,39.45
2017-12-20T15:03:46.338Z,48.78
2017-12-20T15:06:13.875Z,37.85
2017-12-20T15:08:41.362Z,48.00
2017-12-20T15:11:08.887Z,52.85
2017-12-20T15:13:36.402Z,40.65
2017-12-20T15:16:04.659Z,41.37
2017-12-20T15:18:32.155Z,39.25
2017-12-20T15:20:59.683Z,41.13
2017-12-20T15:23:27.187Z,37.63
2017-12-20T15:25:58.324Z,43.95
2017-12-20T15:28:25.804Z,42.42
2017-12-20T15:30:53.332Z,41.28
2017-12-20T15:33:21.606Z,42.28
2017-12-20T15:35:49.145Z,69.43
2017-12-20T15:38:17.454Z,47.05
2017-12-20T15:40:44.970Z,85.05
2017-12-20T15:43:18.994Z,73.72
2017-12-20T15:45:47.367Z,65.97
2017-12-20T15:48:15.639Z,82.47
2017-12-20T15:50:43.150Z,70.03
2017-12-20T15:53:10.670Z,76.30
2017-12-20T15:55:39.037Z,113.37
2017-12-20T15:58:09.937Z,76.97
2017-12-20T16:00:37.464Z,72.18
2017-12-20T16:03:04.967Z,31.55
2017-12-20T16:05:32.499Z,56.08
2017-12-20T16:08:00.010Z,45.83
2017-12-20T16:10:27.527Z,60.20
2017-12-20T16:13:07.481Z,96.60
2017-12-20T16:15:34.986Z,92.32
2017-12-20T16:18:03.304Z,60.75
2017-12-20T16:20:32.414Z,94.97
2017-12-20T16:22:59.951Z,64.75
2017-12-20T16:25:27.854Z,70.53
2017-12-20T16:28:01.506Z,69.35
2017-12-20T16:30:28.997Z,70.07
2017-12-20T16:32:56.532Z,76.68
2017-12-20T16:35:24.048Z,93.85
2017-12-20T16:37:51.547Z,68.07
2017-12-20T16:40:20.387Z,96.25
2017-12-20T16:42:47.894Z,111.32
2017-12-20T16:45:15.379Z,80.72
2017-12-20T16:47:42.939Z,84.00
2017-12-20T16:50:10.450Z,74.15
2017-12-20T16:52:38.727Z,106.57
2017-12-20T16:55:07.021Z,110.28
2017-12-20T16:57:35.234Z,106.18
2017-12-20T17:00:02.740Z,103.07
2017-12-20T17:02:31.030Z,74.87
2017-12-20T17:05:21.687Z,105.35
2017-12-20T17:07:49.197Z,96.63
2017-12-20T17:10:16.677Z,95.35
2017-12-20T17:12:44.211Z,98.80
2017-12-20T17:15:11.769Z,79.65
2017-12-20T17:17:39.257Z,101.80
2017-12-20T17:20:06.766Z,82.35
2017-12-20T17:22:43.226Z,86.40
2017-12-20T17:25:11.487Z,74.12
2017-12-20T17:27:39.200Z,70.37
2017-12-20T17:30:13.428Z,73.72
2017-12-20T17:32:40.947Z,72.00
2017-12-20T17:35:15.297Z,60.08
2017-12-20T17:37:42.815Z,69.75
2017-12-20T17:40:11.070Z,66.55
2017-12-20T17:42:38.575Z,65.90
2017-12-20T17:45:15.950Z,64.25
2017-12-20T17:47:50.783Z,51.10
2017-12-20T17:50:21.907Z,65.62
2017-12-20T17:52:49.407Z,61.78
2017-12-20T17:55:16.933Z,54.85
2017-12-20T17:57:45.258Z,58.92
2017-12-20T18:00:12.761Z,63.53
2017-12-20T18:02:40.283Z,48.17
2017-12-20T18:05:07.804Z,54.13
2017-12-20T18:07:36.098Z,52.45
2017-12-20T18:10:03.619Z,60.12
2017-12-20T18:12:31.895Z,43.30
2017-12-20T18:15:03.447Z,48.22
2017-12-20T18:17:30.943Z,48.20
2017-12-20T18:19:58.490Z,43.50
2017-12-20T18:22:25.994Z,41.55
2017-12-20T18:24:53.519Z,48.92
2017-12-20T18:27:21.003Z,54.67
2017-12-20T18:29:48.521Z,47.55
2017-12-20T18:32:16.025Z,51.08
2017-12-20T18:34:43.515Z,49.65
2017-12-20T18:37:11.009Z,51.20
2017-12-20T18:39:38.511Z,51.20
2017-12-20T18:42:06.018Z,60.05
2017-12-20T18:44:33.508Z,54.92
2017-12-20T18:47:01.028Z,66.80
2017-12-20T18:49:29.283Z,61.63
2017-12-20T18:51:56.819Z,56.33
2017-12-20T18:54:24.312Z,51.28
2017-12-20T18:56:52.558Z,62.65
2017-12-20T18:59:20.099Z,59.47
2017-12-20T19:01:47.625Z,50.80
2017-12-20T19:04:15.130Z,47.35
2017-12-20T19:06:42.670Z,46.75
2017-12-20T19:09:10.195Z,49.15
2017-12-20T19:11:37.763Z,50.72
2017-12-20T19:14:05.305Z,48.03
2017-12-20T19:16:32.892Z,45.88
2017-12-20T19:19:00.397Z,48.97
2017-12-20T19:21:27.891Z,53.05
2017-12-20T19:23:55.423Z,58.40
2017-12-20T19:26:22.914Z,60.00
2017-12-20T19:28:50.468Z,56.58
2017-12-20T19:31:18.727Z,67.80
2017-12-20T19:33:46.280Z,57.83
2017-12-20T19:36:13.784Z,52.35
2017-12-20T19:38:41.287Z,57.70
2017-12-20T19:41:08.766Z,50.85
2017-12-20T19:43:40.030Z,48.92
2017-12-20T19:46:07.547Z,41.83
2017-12-20T19:48:35.076Z,37.00
2017-12-20T19:51:08.918Z,37.65
2017-12-20T19:53:36.481Z,34.10
2017-12-20T19:56:03.990Z,38.30
2017-12-20T19:58:31.510Z,38.10
2017-12-20T20:00:59.817Z,33.78
2017-12-20T20:03:27.293Z,37.25
2017-12-20T20:06:08.578Z,32.97
2017-12-20T20:08:36.084Z,41.85
2017-12-20T20:11:03.566Z,34.53
2017-12-20T20:13:31.073Z,33.55
2017-12-20T20:15:58.577Z,28.80
2017-12-20T20:18:26.110Z,21.30
2017-12-20T20:20:53.618Z,21.95
2017-12-20T20:23:21.130Z,17.15
2017-12-20T20:25:48.677Z,16.15
2017-12-20T20:28:16.167Z,12.55
2017-12-20T20:30:43.673Z,14.02
2017-12-20T20:33:11.162Z,14.68
2017-12-20T20:35:38.676Z,14.95
2017-12-20T20:38:06.188Z,14.93
2017-12-20T20:40:34.437Z,14.52
2017-12-20T20:43:01.923Z,12.32
2017-12-20T20:45:30.164Z,13.60
2017-12-20T20:47:57.707Z,14.20
2017-12-20T20:50:25.173Z,18.58
2017-12-20T20:52:55.781Z,16.98
2017-12-20T20:55:23.283Z,18.80
2017-12-20T20:57:51.302Z,20.50
2017-12-20T21:00:18.783Z,19.52
2017-12-20T21:02:46.249Z,15.13
2017-12-20T21:05:13.731Z,14.18
2017-12-20T21:07:41.279Z,16.05
2017-12-20T21:10:08.757Z,13.25
2017-12-20T21:12:45.819Z,11.90
2017-12-20T21:15:13.933Z,16.15
2017-12-20T21:17:41.406Z,15.80
2017-12-20T21:20:08.914Z,20.80
2017-12-20T21:22:37.037Z,17.35
2017-12-20T21:25:04.617Z,20.50
2017-12-20T21:27:32.122Z,15.70
2017-12-20T21:30:01.217Z,17.83
2017-12-20T21:32:31.446Z,15.20
2017-12-20T21:35:00.617Z,19.95
2017-12-20T21:37:28.101Z,17.08
2017-12-20T21:39:56.400Z,18.87
2017-12-20T21:42:23.894Z,19.70
2017-12-20T21:44:51.382Z,19.58
2017-12-20T21:47:18.871Z,17.87
2017-12-20T21:49:46.412Z,19.85
2017-12-20T21:52:14.669Z,20.30
2017-12-20T21:54:42.179Z,22.42
2017-12-20T21:57:09.736Z,21.62
2017-12-20T21:59:37.252Z,26.42
2017-12-20T22:02:04.755Z,25.15
2017-12-20T22:04:32.267Z,26.95
2017-12-20T22:06:59.760Z,31.05
2017-12-20T22:09:27.267Z,30.52
2017-12-20T22:11:54.755Z,29.60
2017-12-20T22:14:22.306Z,26.45
2017-12-20T22:16:49.817Z,32.10
2017-12-20T22:19:17.322Z,29.17
2017-12-20T22:21:44.798Z,25.12
2017-12-20T22:24:13.081Z,24.75
2017-12-20T22:26:40.583Z,23.30
2017-12-20T22:29:08.127Z,21.60
2017-12-20T22:31:35.642Z,26.12
2017-12-20T22:34:03.180Z,28.15
2017-12-20T22:36:30.667Z,29.85
2017-12-20T22:38:58.202Z,26.55
2017-12-20T22:41:25.693Z,25.12
2017-12-20T22:43:53.189Z,28.77
2017-12-20T22:46:20.713Z,35.83
2017-12-20T22:48:48.247Z,29.45
2017-12-20T22:51:16.529Z,38.53
2017-12-20T22:53:44.798Z,32.58
2017-12-20T22:56:16.125Z,40.65
2017-12-20T22:58:43.623Z,40.88
2017-12-20T23:01:11.119Z,45.75
2017-12-20T23:03:38.647Z,41.50
2017-12-20T23:06:06.153Z,39.70
2017-12-20T23:08:33.678Z,45.65
2017-12-20T23:11:01.159Z,39.20
2017-12-20T23:13:28.635Z,49.83
2017-12-20T23:15:56.172Z,40.35
2017-12-20T23:18:23.678Z,39.97
2017-12-20T23:20:51.966Z,39.88
2017-12-20T23:23:20.237Z,37.15
2017-12-20T23:25:47.763Z,32.38
2017-12-20T23:28:19.045Z,35.80
2017-12-20T23:30:46.546Z,37.58
2017-12-20T23:33:23.686Z,32.38
2017-12-20T23:35:51.938Z,35.05
2017-12-20T23:38:22.883Z,39.72
2017-12-20T23:40:50.388Z,48.13
2017-12-20T23:43:17.879Z,61.65
2017-12-20T23:45:45.421Z,42.62
2017-12-20T23:48:12.928Z,42.83
2017-12-20T23:50:40.412Z,57.35
2017-12-20T23:53:07.923Z,41.55
2017-12-20T23:55:35.431Z,46.63
2017-12-20T23:58:02.942Z,58.17
